Time;durP1;ratioP1;P1;durP2;ratioP2;P2;SDS_P1;SDS_P2;PMS_P1;PMS_P2;Temp;Humidity;BMP_temperature;BMP_pressure;BME280_temperature;BME280_humidity;BME280_pressure;Samples;Min_cycle;Max_cycle;Signal;HPM_P1;HPM_P2
2020/12/10 00:01:19;;;;;;;46.88;21.30;;;3.20;99.80;;;;;;4973328;28;20222;-88
2020/12/10 00:03:47;;;;;;;40.55;18.13;;;3.20;99.80;;;;;;5000893;28;20226;-88
2020/12/10 00:06:17;;;;;;;32.35;16.73;;;3.20;99.80;;;;;;4988878;28;20712;-88
2020/12/10 00:08:44;;;;;;;32.70;17.60;;;3.20;99.80;;;;;;4989379;28;20335;-89
2020/12/10 00:11:11;;;;;;;32.92;15.52;;;3.20;99.80;;;;;;4988307;28;20232;-89
2020/12/10 00:13:38;;;;;;;33.10;16.65;;;3.10;99.80;;;;;;4989352;28;20244;-89
2020/12/10 00:16:05;;;;;;;29.88;15.20;;;3.10;99.80;;;;;;4991066;28;20702;-89
2020/12/10 00:18:33;;;;;;;32.47;17.60;;;3.10;99.80;;;;;;5010182;28;20366;-89
2020/12/10 00:21:00;;;;;;;27.98;14.27;;;3.10;99.80;;;;;;5001761;28;20232;-89
2020/12/10 00:23:27;;;;;;;29.08;14.50;;;3.10;99.80;;;;;;4992046;28;20781;-89
2020/12/10 00:25:54;;;;;;;25.15;14.20;;;3.10;99.80;;;;;;4993448;28;20241;-88
2020/12/10 00:28:28;;;;;;;27.58;14.38;;;3.10;99.80;;;;;;4996790;28;20230;-89
2020/12/10 00:30:55;;;;;;;27.23;13.43;;;3.10;99.80;;;;;;4993992;28;20739;-89
2020/12/10 00:33:22;;;;;;;30.95;13.70;;;3.10;99.80;;;;;;4996130;28;20226;-89
2020/12/10 00:35:50;;;;;;;27.38;14.90;;;3.00;99.80;;;;;;4987853;28;20227;-88
2020/12/10 00:38:17;;;;;;;29.55;13.55;;;3.00;99.80;;;;;;4973881;28;20308;-89
2020/12/10 00:40:44;;;;;;;25.75;14.48;;;3.00;99.80;;;;;;4985632;28;20230;-89
2020/12/10 00:43:11;;;;;;;31.30;14.73;;;3.00;99.80;;;;;;4991677;28;20868;-89
2020/12/10 00:45:39;;;;;;;30.55;16.33;;;2.90;99.80;;;;;;4980377;28;20247;-89
2020/12/10 00:48:06;;;;;;;25.70;14.25;;;2.90;99.80;;;;;;4996120;28;20230;-89
2020/12/10 00:50:33;;;;;;;29.63;14.43;;;2.90;99.80;;;;;;5010602;28;20249;-89
2020/12/10 00:53:01;;;;;;;29.83;15.90;;;2.90;99.80;;;;;;5004801;28;20222;-89
2020/12/10 00:55:28;;;;;;;28.50;14.40;;;3.00;99.80;;;;;;4999721;28;20219;-89
2020/12/10 00:57:55;;;;;;;33.30;14.68;;;2.90;99.80;;;;;;5003515;28;20222;-89
2020/12/10 01:00:23;;;;;;;27.50;15.00;;;2.90;99.80;;;;;;5002395;28;20228;-89
2020/12/10 01:02:51;;;;;;;26.60;14.25;;;2.90;99.80;;;;;;4994238;28;20229;-89
2020/12/10 01:05:18;;;;;;;25.65;13.40;;;2.90;99.80;;;;;;5007053;28;20226;-89
2020/12/10 01:07:48;;;;;;;26.60;14.55;;;2.90;99.80;;;;;;4985357;28;20315;-89
2020/12/10 01:10:17;;;;;;;27.02;15.00;;;2.90;99.80;;;;;;4984948;28;20997;-89
2020/12/10 01:12:44;;;;;;;26.30;14.45;;;2.90;99.80;;;;;;4979451;28;20330;-89
2020/12/10 01:15:11;;;;;;;30.90;15.05;;;2.90;99.80;;;;;;4992393;28;20725;-89
2020/12/10 01:17:41;;;;;;;29.92;14.95;;;2.90;99.80;;;;;;4998260;28;20391;-89
2020/12/10 01:20:09;;;;;;;34.17;15.07;;;2.90;99.80;;;;;;5011271;28;20236;-88
2020/12/10 01:22:37;;;;;;;29.73;15.45;;;2.90;99.80;;;;;;5007888;28;20236;-89
2020/12/10 01:25:04;;;;;;;31.48;16.98;;;2.90;99.80;;;;;;5002985;28;20311;-89
2020/12/10 01:27:39;;;;;;;30.77;15.05;;;2.90;99.80;;;;;;5009418;28;20288;-88
2020/12/10 01:30:07;;;;;;;28.40;13.85;;;2.90;99.80;;;;;;4996510;28;20312;-88
2020/12/10 01:32:34;;;;;;;25.75;14.68;;;2.90;99.80;;;;;;4986564;28;20232;-89
2020/12/10 01:35:03;;;;;;;28.80;15.82;;;2.90;99.80;;;;;;5012831;28;20232;-89
2020/12/10 01:37:30;;;;;;;30.30;15.73;;;2.90;99.80;;;;;;5002697;28;20241;-89
2020/12/10 01:39:59;;;;;;;29.08;14.05;;;2.90;99.80;;;;;;4993846;28;20233;-89
2020/12/10 01:42:26;;;;;;;28.65;14.90;;;2.80;99.80;;;;;;4991939;28;20308;-89
2020/12/10 01:44:54;;;;;;;29.73;14.95;;;2.80;99.80;;;;;;4995575;28;20232;-89
2020/12/10 01:47:23;;;;;;;32.47;14.98;;;2.80;99.80;;;;;;4987694;28;20409;-89
2020/12/10 01:49:50;;;;;;;29.23;15.07;;;2.80;99.80;;;;;;5015671;28;20250;-89
2020/12/10 01:52:17;;;;;;;29.25;15.75;;;2.80;99.80;;;;;;4993843;28;20217;-89
2020/12/10 01:54:44;;;;;;;28.02;14.68;;;2.80;99.80;;;;;;4981517;28;20233;-89
2020/12/10 01:57:12;;;;;;;25.75;14.70;;;2.80;99.80;;;;;;4992033;28;20235;-89
2020/12/10 01:59:39;;;;;;;28.35;15.40;;;2.80;99.80;;;;;;4972980;28;20230;-89
2020/12/10 02:02:09;;;;;;;25.33;14.05;;;2.80;99.80;;;;;;4977018;28;20312;-88
2020/12/10 02:04:37;;;;;;;28.35;15.07;;;2.80;99.80;;;;;;5013803;28;20235;-88
2020/12/10 02:07:05;;;;;;;26.55;14.27;;;2.80;99.80;;;;;;5010413;28;20233;-89
2020/12/10 02:09:34;;;;;;;26.88;14.52;;;2.80;99.80;;;;;;5005888;28;20230;-88
2020/12/10 02:12:02;;;;;;;27.95;13.35;;;2.80;99.80;;;;;;4984446;28;20227;-89
2020/12/10 02:14:33;;;;;;;30.10;13.85;;;2.80;99.80;;;;;;4997491;28;20716;-89
2020/12/10 02:17:01;;;;;;;35.08;14.75;;;2.80;99.80;;;;;;4981181;28;20225;-88
2020/12/10 02:19:29;;;;;;;29.55;14.82;;;2.70;99.80;;;;;;4997741;28;20245;-89
2020/12/10 02:21:56;;;;;;;28.70;15.18;;;2.70;99.80;;;;;;4993336;28;20229;-89
2020/12/10 02:24:25;;;;;;;31.25;15.00;;;2.70;99.80;;;;;;4987163;28;20314;-89
2020/12/10 02:26:52;;;;;;;27.88;13.40;;;2.70;99.80;;;;;;4986400;28;20229;-88
2020/12/10 02:29:19;;;;;;;34.47;15.05;;;2.80;99.80;;;;;;4993040;28;20234;-89
2020/12/10 02:31:47;;;;;;;27.63;13.57;;;2.70;99.80;;;;;;4991471;28;20285;-88
2020/12/10 02:34:15;;;;;;;29.75;14.65;;;2.70;99.80;;;;;;5012156;28;20226;-88
2020/12/10 02:36:44;;;;;;;25.70;13.35;;;2.70;99.80;;;;;;5007780;28;20773;-89
2020/12/10 02:39:11;;;;;;;27.27;13.65;;;2.70;99.80;;;;;;5007270;28;20892;-89
2020/12/10 02:41:40;;;;;;;24.73;13.10;;;2.70;99.80;;;;;;4995668;28;20373;-89
2020/12/10 02:44:08;;;;;;;27.45;14.35;;;2.70;99.80;;;;;;5000267;28;20231;-89
2020/12/10 02:46:35;;;;;;;26.48;14.20;;;2.70;99.80;;;;;;4978204;28;20240;-88
2020/12/10 02:49:02;;;;;;;26.23;13.18;;;2.70;99.80;;;;;;5011301;28;20222;-89
2020/12/10 02:51:29;;;;;;;27.13;14.40;;;2.70;99.80;;;;;;5001946;28;20222;-89
2020/12/10 02:53:57;;;;;;;26.70;14.70;;;2.70;99.80;;;;;;5011179;28;20222;-89
2020/12/10 02:56:24;;;;;;;35.67;14.55;;;2.70;99.80;;;;;;4999290;28;20244;-89
2020/12/10 02:58:53;;;;;;;28.25;13.88;;;2.70;99.80;;;;;;5001806;28;20230;-89
2020/12/10 03:01:20;;;;;;;26.38;14.05;;;2.70;99.80;;;;;;5011181;28;20220;-89
2020/12/10 03:03:47;;;;;;;29.67;12.95;;;2.70;99.80;;;;;;5003606;28;20206;-88
2020/12/10 03:06:14;;;;;;;30.35;14.38;;;2.70;99.80;;;;;;5006871;28;20222;-89
2020/12/10 03:08:41;;;;;;;27.30;13.95;;;2.70;99.80;;;;;;5007891;28;20214;-89
2020/12/10 03:11:09;;;;;;;29.95;14.50;;;2.70;99.80;;;;;;5013375;28;20198;-88
2020/12/10 03:13:36;;;;;;;30.90;13.85;;;2.70;99.80;;;;;;5006460;28;20199;-89
2020/12/10 03:16:05;;;;;;;29.45;13.65;;;2.70;99.80;;;;;;4998199;28;20247;-89
2020/12/10 03:18:32;;;;;;;27.25;14.02;;;2.70;99.80;;;;;;5006780;28;20230;-89
2020/12/10 03:20:59;;;;;;;26.33;14.20;;;2.70;99.80;;;;;;4976324;28;20234;-89
2020/12/10 03:23:26;;;;;;;27.48;13.95;;;2.60;99.80;;;;;;5005185;28;20322;-88
2020/12/10 03:25:53;;;;;;;26.80;14.02;;;2.50;99.80;;;;;;5004828;28;20234;-89
2020/12/10 03:28:21;;;;;;;27.30;14.60;;;2.50;99.80;;;;;;4992442;28;20585;-89
2020/12/10 03:30:49;;;;;;;28.33;13.38;;;2.50;99.80;;;;;;5001396;28;20296;-88
2020/12/10 03:33:17;;;;;;;22.35;11.98;;;2.50;99.80;;;;;;5006858;28;20230;-89
2020/12/10 03:35:44;;;;;;;25.58;13.98;;;2.40;99.80;;;;;;4987294;28;20717;-88
2020/12/10 03:38:11;;;;;;;26.58;13.77;;;2.40;99.80;;;;;;4977560;28;20229;-89
2020/12/10 03:40:38;;;;;;;24.20;12.52;;;2.40;99.80;;;;;;4999760;28;20669;-89
2020/12/10 03:43:05;;;;;;;22.65;12.32;;;2.40;99.80;;;;;;5002935;28;20246;-90
2020/12/10 03:45:33;;;;;;;29.38;12.70;;;2.40;99.80;;;;;;5010361;28;20227;-89
2020/12/10 03:48:01;;;;;;;26.20;12.10;;;2.40;99.80;;;;;;5003775;28;20240;-89
2020/12/10 03:50:32;;;;;;;25.98;12.35;;;2.40;99.80;;;;;;5009615;28;20685;-89
2020/12/10 03:52:59;;;;;;;21.70;11.50;;;2.50;99.80;;;;;;5005353;28;20238;-89
2020/12/10 03:55:26;;;;;;;25.33;12.23;;;2.40;99.80;;;;;;5009231;28;20230;-88
2020/12/10 03:57:53;;;;;;;26.40;13.25;;;2.40;99.80;;;;;;5007528;28;20236;-89
2020/12/10 04:00:21;;;;;;;24.10;12.45;;;2.40;99.80;;;;;;5005022;28;20238;-89
2020/12/10 04:02:48;;;;;;;24.60;12.50;;;2.40;99.80;;;;;;5006023;28;20249;-89
2020/12/10 04:05:15;;;;;;;26.48;13.30;;;2.40;99.80;;;;;;5009618;28;20230;-88
2020/12/10 04:07:43;;;;;;;23.13;11.95;;;2.50;99.80;;;;;;5007668;28;20254;-89
2020/12/10 04:10:11;;;;;;;24.35;12.70;;;2.40;99.80;;;;;;5005808;28;20233;-89
2020/12/10 04:12:38;;;;;;;21.90;11.95;;;2.40;99.80;;;;;;5002299;28;20305;-89
2020/12/10 04:15:06;;;;;;;23.08;10.90;;;2.50;99.80;;;;;;5004812;28;20723;-89
2020/12/10 04:17:32;;;;;;;21.60;11.73;;;2.50;99.80;;;;;;5005089;28;20233;-88
2020/12/10 04:20:01;;;;;;;22.67;11.55;;;2.40;99.80;;;;;;5007042;28;20659;-88
2020/12/10 04:22:28;;;;;;;19.25;11.20;;;2.40;99.80;;;;;;5005072;28;20234;-88
2020/12/10 04:24:57;;;;;;;20.50;10.38;;;2.30;99.80;;;;;;5009608;28;20234;-89
2020/12/10 04:27:24;;;;;;;21.20;11.10;;;2.30;99.80;;;;;;5009445;28;20587;-88
2020/12/10 04:29:51;;;;;;;21.40;10.88;;;2.30;99.80;;;;;;5002523;28;20701;-88
2020/12/10 04:32:21;;;;;;;19.60;10.55;;;2.30;99.80;;;;;;4999163;28;20226;-89
2020/12/10 04:34:48;;;;;;;18.40;10.90;;;2.20;99.80;;;;;;4982392;28;20701;-88
2020/12/10 04:37:15;;;;;;;22.15;10.63;;;2.20;99.80;;;;;;4991199;28;20222;-89
2020/12/10 04:39:47;;;;;;;18.10;9.52;;;2.20;99.80;;;;;;4990712;28;20229;-89
2020/12/10 04:42:17;;;;;;;24.55;11.20;;;2.30;99.80;;;;;;4982803;28;20225;-88
2020/12/10 04:44:46;;;;;;;24.65;10.32;;;2.40;99.80;;;;;;4986713;28;20222;-89
2020/12/10 04:47:13;;;;;;;20.05;10.70;;;2.40;99.80;;;;;;4988033;28;20226;-88
2020/12/10 04:49:41;;;;;;;18.77;10.15;;;2.30;99.80;;;;;;5004888;28;20261;-88
2020/12/10 04:52:11;;;;;;;22.27;10.98;;;2.30;99.80;;;;;;5006380;28;20229;-89
2020/12/10 04:54:39;;;;;;;20.52;10.20;;;2.20;99.80;;;;;;5006694;28;20571;-88
2020/12/10 04:57:10;;;;;;;20.80;10.93;;;2.20;99.80;;;;;;5002037;28;20252;-89
2020/12/10 04:59:39;;;;;;;20.42;11.63;;;2.20;99.80;;;;;;5007872;28;20240;-89
2020/12/10 05:02:10;;;;;;;26.73;11.07;;;2.20;99.80;;;;;;4985702;28;20646;-89
2020/12/10 05:04:37;;;;;;;23.30;11.40;;;2.20;99.80;;;;;;4974490;28;20233;-89
2020/12/10 05:07:08;;;;;;;18.48;10.70;;;2.20;99.80;;;;;;4971099;28;20247;-88
2020/12/10 05:09:35;;;;;;;17.70;9.60;;;2.20;99.80;;;;;;4984068;28;20265;-89
2020/12/10 05:12:02;;;;;;;17.95;9.60;;;2.20;99.80;;;;;;4961728;28;20304;-88
2020/12/10 05:14:45;;;;;;;21.15;10.35;;;2.10;99.80;;;;;;4971322;28;20226;-89
2020/12/10 05:17:15;;;;;;;17.63;9.82;;;2.10;99.80;;;;;;4973926;28;20218;-88
2020/12/10 05:19:42;;;;;;;16.40;8.65;;;2.10;99.80;;;;;;5017181;28;20433;-88
2020/12/10 05:22:11;;;;;;;18.40;10.20;;;2.10;99.80;;;;;;5005855;28;20227;-89
2020/12/10 05:24:38;;;;;;;19.75;11.05;;;2.10;99.80;;;;;;5008437;28;20305;-89
2020/12/10 05:27:17;;;;;;;22.05;10.77;;;2.10;99.80;;;;;;5007745;28;20226;-89
2020/12/10 05:29:45;;;;;;;18.65;10.40;;;2.10;99.80;;;;;;5008094;28;20241;-89
2020/12/10 05:32:40;;;;;;;19.75;10.65;;;2.10;99.80;;;;;;5006386;28;20222;-89
2020/12/10 05:35:17;;;;;;;22.25;11.32;;;2.20;99.80;;;;;;4986435;28;20637;-89
2020/12/10 05:37:45;;;;;;;22.20;11.40;;;2.20;99.80;;;;;;4968203;28;20943;-90
2020/12/10 05:40:12;;;;;;;19.42;10.85;;;2.20;99.80;;;;;;4970606;28;20233;-88
2020/12/10 05:45:24;;;;;;;24.17;11.15;;;2.20;99.80;;;;;;4979047;28;20600;-89
2020/12/10 05:48:01;;;;;;;25.33;10.90;;;2.20;99.80;;;;;;5006493;28;20726;-89
2020/12/10 05:50:31;;;;;;;17.23;10.13;;;2.20;99.80;;;;;;5011306;28;20230;-89
2020/12/10 05:53:10;;;;;;;22.10;11.05;;;2.30;99.80;;;;;;5009247;28;20230;-89
2020/12/10 05:55:40;;;;;;;18.13;9.23;;;2.20;99.80;;;;;;4994769;28;20240;-90
2020/12/10 05:58:08;;;;;;;19.98;10.75;;;2.20;99.80;;;;;;5005620;28;21731;-90
2020/12/10 06:00:51;;;;;;;19.23;10.70;;;2.20;99.80;;;;;;5010938;28;20230;-90
2020/12/10 06:03:20;;;;;;;24.20;11.63;;;2.20;99.80;;;;;;5008306;28;20224;-89
2020/12/10 06:05:52;;;;;;;25.00;11.75;;;2.20;99.80;;;;;;5004916;28;20267;-89
2020/12/10 06:08:20;;;;;;;18.00;9.82;;;2.20;99.80;;;;;;4986772;28;20317;-90
2020/12/10 06:10:48;;;;;;;23.73;10.68;;;2.20;99.80;;;;;;4994270;28;20814;-90
2020/12/10 06:13:17;;;;;;;27.00;12.52;;;2.20;99.80;;;;;;4987114;28;20306;-90
2020/12/10 06:15:49;;;;;;;24.10;11.65;;;2.20;99.80;;;;;;4980735;28;20717;-90
2020/12/10 06:18:17;;;;;;;17.92;10.50;;;2.20;99.80;;;;;;5000935;28;20260;-89
2020/12/10 06:20:46;;;;;;;19.95;10.95;;;2.20;99.80;;;;;;5018419;28;20624;-90
2020/12/10 06:23:37;;;;;;;19.92;10.93;;;2.20;99.80;;;;;;5018507;28;20245;-90
2020/12/10 06:26:33;;;;;;;22.17;10.90;;;2.20;99.80;;;;;;5000902;28;20241;-90
2020/12/10 06:29:24;;;;;;;23.35;10.88;;;2.20;99.80;;;;;;5009357;28;20272;-90
2020/12/10 06:32:16;;;;;;;26.65;12.15;;;2.20;99.80;;;;;;5007147;28;20317;-90
2020/12/10 06:34:48;;;;;;;19.67;10.63;;;2.30;99.80;;;;;;5001349;28;20686;-89
2020/12/10 06:37:26;;;;;;;19.48;10.55;;;2.20;99.80;;;;;;5002399;28;20596;-90
2020/12/10 06:39:56;;;;;;;19.48;10.77;;;2.20;99.80;;;;;;4987419;28;20716;-89
2020/12/10 06:42:32;;;;;;;20.48;10.82;;;2.20;99.80;;;;;;4991761;28;20237;-89
2020/12/10 06:45:00;;;;;;;21.45;11.10;;;2.10;99.80;;;;;;4971213;28;20232;-89
2020/12/10 06:47:41;;;;;;;19.50;10.30;;;2.10;99.80;;;;;;4981258;28;20319;-89
2020/12/10 06:53:23;;;;;;;22.88;11.02;;;2.10;99.80;;;;;;4971156;28;20315;-87
2020/12/10 06:56:07;;;;;;;24.88;12.13;;;2.20;99.80;;;;;;4977568;28;20313;-87
2020/12/10 07:01:38;;;;;;;22.85;11.23;;;2.20;99.80;;;;;;4988563;28;20229;-87
2020/12/10 07:04:19;;;;;;;20.23;11.15;;;2.20;99.80;;;;;;5000947;28;20238;-87
2020/12/10 07:06:47;;;;;;;21.27;11.40;;;2.30;99.80;;;;;;4996704;28;20239;-87
2020/12/10 07:09:15;;;;;;;20.23;10.90;;;2.30;99.80;;;;;;5004261;28;20226;-86
2020/12/10 07:11:43;;;;;;;17.83;11.02;;;2.30;99.80;;;;;;4994978;28;20241;-86
2020/12/10 07:14:25;;;;;;;21.63;11.10;;;2.30;99.80;;;;;;5001278;28;20862;-87
2020/12/10 07:16:56;;;;;;;19.98;11.25;;;2.30;99.80;;;;;;5004259;28;20831;-87
2020/12/10 07:19:24;;;;;;;19.92;11.25;;;2.30;99.80;;;;;;4998318;28;20231;-87
2020/12/10 07:21:52;;;;;;;24.27;12.70;;;2.30;99.80;;;;;;4970218;28;20248;-87
2020/12/10 07:24:27;;;;;;;19.98;10.35;;;2.30;99.80;;;;;;4958574;28;20246;-87
2020/12/10 07:26:54;;;;;;;20.85;11.60;;;2.30;99.80;;;;;;4978805;28;20232;-87
2020/12/10 07:29:21;;;;;;;20.55;9.82;;;2.40;99.80;;;;;;4971542;28;20238;-87
2020/12/10 07:31:48;;;;;;;22.23;11.85;;;2.40;99.80;;;;;;4990110;28;20222;-87
2020/12/10 07:34:15;;;;;;;19.13;11.02;;;2.40;99.80;;;;;;4998813;28;20237;-87
2020/12/10 07:39:47;;;;;;;20.15;10.85;;;2.40;99.80;;;;;;4990537;28;20238;-87
2020/12/10 07:42:19;;;;;;;21.73;11.93;;;2.40;99.80;;;;;;5003362;28;20768;-87
2020/12/10 07:44:47;;;;;;;23.00;11.85;;;2.40;99.80;;;;;;5001691;28;22785;-87
2020/12/10 07:47:14;;;;;;;25.77;12.35;;;2.40;99.80;;;;;;5003980;28;20724;-87
2020/12/10 07:49:42;;;;;;;26.67;13.57;;;2.50;99.80;;;;;;5003211;28;20222;-87
2020/12/10 07:52:10;;;;;;;28.50;13.13;;;2.50;99.80;;;;;;4993906;28;20221;-87
2020/12/10 07:54:45;;;;;;;23.90;10.63;;;2.50;99.80;;;;;;4977879;28;20233;-87
2020/12/10 07:57:23;;;;;;;30.90;17.35;;;2.50;99.80;;;;;;4992646;28;20247;-87
2020/12/10 07:59:57;;;;;;;27.58;13.82;;;2.60;99.80;;;;;;4984468;28;20235;-87
2020/12/10 08:02:56;;;;;;;25.65;13.88;;;2.60;99.80;;;;;;4993923;28;20227;-87
2020/12/10 08:05:24;;;;;;;23.73;12.07;;;2.60;99.80;;;;;;4997387;28;20233;-87
2020/12/10 08:07:53;;;;;;;22.40;13.45;;;2.60;99.80;;;;;;4999772;28;20230;-86
2020/12/10 08:10:22;;;;;;;23.23;12.60;;;2.60;99.80;;;;;;4993509;28;20230;-87
2020/12/10 08:13:24;;;;;;;25.63;12.80;;;2.60;99.80;;;;;;5006004;28;20232;-87
2020/12/10 08:15:53;;;;;;;23.42;11.80;;;2.60;99.80;;;;;;4992158;28;20678;-87
2020/12/10 08:21:07;;;;;;;23.77;12.30;;;2.60;99.80;;;;;;4998533;28;20223;-87
2020/12/10 08:23:46;;;;;;;22.85;11.90;;;2.60;99.80;;;;;;4975099;28;20313;-87
2020/12/10 08:26:19;;;;;;;23.77;12.30;;;2.60;99.80;;;;;;4969070;28;20230;-87
2020/12/10 08:28:52;;;;;;;22.50;12.00;;;2.60;99.80;;;;;;4996219;28;20225;-87
2020/12/10 08:31:46;;;;;;;22.55;12.57;;;2.70;99.80;;;;;;4976615;28;20230;-87
2020/12/10 08:34:17;;;;;;;30.25;14.85;;;2.70;99.80;;;;;;4939792;28;20605;-86
2020/12/10 08:36:45;;;;;;;28.48;13.25;;;2.70;99.80;;;;;;4964135;28;20310;-87
2020/12/10 08:39:33;;;;;;;28.60;14.55;;;2.80;99.80;;;;;;4985122;28;20230;-87
2020/12/10 08:42:01;;;;;;;24.80;12.75;;;2.80;99.80;;;;;;4973789;28;20719;-87
2020/12/10 08:44:45;;;;;;;25.63;13.32;;;2.70;99.80;;;;;;4981995;28;20225;-87
2020/12/10 08:47:26;;;;;;;27.27;13.55;;;2.80;99.80;;;;;;4968786;28;20715;-87
2020/12/10 08:50:22;;;;;;;29.10;13.90;;;2.80;99.80;;;;;;5005972;28;20599;-87
2020/12/10 08:53:04;;;;;;;31.38;14.85;;;2.80;99.80;;;;;;4998089;28;20223;-87
2020/12/10 08:55:40;;;;;;;26.75;12.73;;;2.80;99.80;;;;;;4980833;28;21147;-86
2020/12/10 08:58:08;;;;;;;24.25;12.48;;;2.90;99.80;;;;;;4983589;28;20316;-87
2020/12/10 09:03:21;;;;;;;25.20;12.40;;;2.90;99.80;;;;;;4985421;28;20232;-87
2020/12/10 09:05:48;;;;;;;23.58;12.80;;;2.90;99.80;;;;;;4993310;28;20600;-87
2020/12/10 09:08:15;;;;;;;26.15;13.30;;;2.90;99.80;;;;;;4969101;28;20229;-87
2020/12/10 09:10:42;;;;;;;27.77;14.55;;;2.90;99.80;;;;;;4988364;28;20246;-87
2020/12/10 09:15:54;;;;;;;26.85;14.13;;;2.90;99.80;;;;;;4993080;28;20233;-87
2020/12/10 09:18:36;;;;;;;31.40;13.70;;;2.90;99.80;;;;;;5004351;28;20217;-87
2020/12/10 09:21:09;;;;;;;26.40;13.70;;;2.90;99.80;;;;;;4997886;28;20317;-87
2020/12/10 09:23:43;;;;;;;32.08;15.38;;;3.00;99.80;;;;;;5004209;28;20244;-87
2020/12/10 09:26:11;;;;;;;25.27;13.27;;;3.00;99.80;;;;;;5002158;28;20245;-86
2020/12/10 09:28:39;;;;;;;28.02;14.20;;;3.00;99.80;;;;;;4993410;28;20607;-87
2020/12/10 09:37:17;;;;;;;29.20;14.32;;;3.30;99.80;;;;;;4968460;28;20795;-87
2020/12/10 09:42:25;;;;;;;29.70;15.15;;;3.40;99.80;;;;;;4975562;28;20234;-87
2020/12/10 09:44:53;;;;;;;29.35;14.07;;;3.40;99.80;;;;;;4982167;28;20242;-87
2020/12/10 09:52:54;;;;;;;32.72;16.85;;;3.60;99.80;;;;;;5000993;28;20232;-87
2020/12/10 09:55:38;;;;;;;25.95;13.77;;;3.60;99.80;;;;;;5000516;28;20595;-86
2020/12/10 09:58:05;;;;;;;27.13;13.95;;;3.60;99.80;;;;;;5000733;28;20218;-87
2020/12/10 10:00:32;;;;;;;30.70;15.43;;;3.60;99.80;;;;;;5001563;28;20257;-87
2020/12/10 10:03:02;;;;;;;26.35;13.20;;;3.70;99.80;;;;;;5001693;28;20226;-87
2020/12/10 10:08:36;;;;;;;27.88;14.20;;;3.70;99.80;;;;;;4978143;28;20807;-87
2020/12/10 10:11:24;;;;;;;30.45;14.57;;;3.70;99.80;;;;;;4966893;28;20218;-87
2020/12/10 10:14:14;;;;;;;33.72;14.70;;;3.70;99.80;;;;;;4964258;28;20223;-87
2020/12/10 10:16:41;;;;;;;28.42;14.77;;;3.80;99.80;;;;;;4982639;28;20227;-87
2020/12/10 10:19:10;;;;;;;28.17;14.63;;;3.80;99.80;;;;;;5007304;28;20232;-86
2020/12/10 10:21:40;;;;;;;28.38;14.48;;;3.90;99.80;;;;;;5007809;28;20711;-88
2020/12/10 10:24:09;;;;;;;25.95;13.80;;;3.70;99.80;;;;;;4997398;28;20324;-87
2020/12/10 10:26:36;;;;;;;28.77;12.77;;;3.70;99.80;;;;;;5003350;28;20226;-87
2020/12/10 10:29:07;;;;;;;24.85;13.40;;;3.70;99.80;;;;;;5007248;28;20231;-87
2020/12/10 10:34:16;;;;;;;27.45;14.30;;;3.60;99.80;;;;;;5009930;28;20249;-87
2020/12/10 10:37:00;;;;;;;31.58;14.25;;;3.60;99.80;;;;;;5002870;28;20228;-87
2020/12/10 10:39:28;;;;;;;30.95;17.00;;;3.60;99.80;;;;;;4987769;28;20257;-88
2020/12/10 10:44:39;;;;;;;31.33;13.57;;;3.60;99.80;;;;;;4991084;28;20230;-87
2020/12/10 10:47:07;;;;;;;29.55;13.98;;;3.70;99.80;;;;;;4985095;28;20234;-87
2020/12/10 10:55:03;;;;;;;25.05;13.18;;;3.70;99.80;;;;;;4985582;28;20225;-87
2020/12/10 10:57:30;;;;;;;26.58;13.68;;;3.60;99.80;;;;;;4963045;28;20226;-87
2020/12/10 11:00:18;;;;;;;31.33;14.98;;;3.70;99.80;;;;;;4975751;28;20236;-87
2020/12/10 11:02:45;;;;;;;24.55;13.00;;;3.70;99.80;;;;;;4977890;28;20695;-87
2020/12/10 11:05:12;;;;;;;24.80;13.52;;;3.70;99.80;;;;;;5009860;28;20679;-87
2020/12/10 11:08:09;;;;;;;31.75;14.18;;;3.80;99.80;;;;;;5001342;28;20230;-87
2020/12/10 11:13:19;;;;;;;28.05;14.73;;;3.80;99.80;;;;;;4980091;28;20317;-87
2020/12/10 11:15:46;;;;;;;32.30;16.02;;;3.80;99.80;;;;;;4978716;28;20748;-87
2020/12/10 11:18:14;;;;;;;31.17;16.45;;;3.80;99.80;;;;;;4999836;28;20313;-86
2020/12/10 11:20:41;;;;;;;27.42;14.52;;;3.80;99.80;;;;;;5006019;28;20229;-87
2020/12/10 11:23:08;;;;;;;28.13;13.45;;;3.80;99.80;;;;;;4976843;28;20302;-87
2020/12/10 11:25:36;;;;;;;27.00;12.85;;;3.80;99.80;;;;;;4990119;28;20309;-86
2020/12/10 11:28:03;;;;;;;26.83;12.40;;;3.90;99.80;;;;;;4987127;28;20309;-87
2020/12/10 11:30:29;;;;;;;24.23;12.30;;;3.90;99.80;;;;;;4987221;28;20225;-87
2020/12/10 11:33:17;;;;;;;21.10;11.98;;;3.90;99.80;;;;;;4986975;28;20305;-87
2020/12/10 11:35:44;;;;;;;26.48;12.55;;;4.00;99.80;;;;;;5010775;28;20239;-87
2020/12/10 11:38:11;;;;;;;22.25;11.93;;;4.00;99.80;;;;;;5002427;28;20226;-87
2020/12/10 11:40:50;;;;;;;22.90;12.40;;;4.00;99.80;;;;;;5008221;28;20231;-86
2020/12/10 11:46:01;;;;;;;24.75;13.18;;;4.00;99.80;;;;;;4999935;28;20587;-87
2020/12/10 11:48:28;;;;;;;30.38;14.43;;;4.00;99.80;;;;;;5001231;28;20277;-87
2020/12/10 11:51:00;;;;;;;25.45;11.85;;;3.90;99.80;;;;;;4999341;28;20236;-87
2020/12/10 11:53:33;;;;;;;23.35;12.45;;;3.90;99.80;;;;;;4986222;28;20234;-87
2020/12/10 11:58:43;;;;;;;25.83;13.20;;;3.90;99.80;;;;;;4980831;28;20240;-87
2020/12/10 12:01:15;;;;;;;24.80;12.75;;;4.00;99.80;;;;;;4989810;28;20317;-86
2020/12/10 12:03:42;;;;;;;19.33;10.93;;;4.00;99.80;;;;;;4995114;28;20257;-86
2020/12/10 12:06:09;;;;;;;27.52;12.90;;;3.90;99.80;;;;;;4996063;28;20291;-87
2020/12/10 12:16:52;;;;;;;31.15;14.70;;;3.80;99.80;;;;;;5000604;28;20227;-87
2020/12/10 12:19:28;;;;;;;29.55;16.02;;;3.80;99.80;;;;;;4999452;28;20293;-87
2020/12/10 12:21:59;;;;;;;27.75;13.73;;;3.80;99.80;;;;;;4993941;28;20228;-87
2020/12/10 12:24:26;;;;;;;29.25;14.35;;;3.70;99.80;;;;;;4982760;28;20226;-87
2020/12/10 12:27:11;;;;;;;35.10;16.02;;;3.70;99.80;;;;;;4990081;28;20257;-86
2020/12/10 12:29:41;;;;;;;34.17;15.25;;;3.70;99.80;;;;;;4980871;28;20239;-87
2020/12/10 12:32:08;;;;;;;30.70;14.55;;;3.70;99.80;;;;;;4988513;28;20226;-87
2020/12/10 12:34:36;;;;;;;27.98;15.15;;;3.70;99.80;;;;;;4976757;28;20561;-87
2020/12/10 12:37:14;;;;;;;35.67;15.25;;;3.70;99.80;;;;;;4987408;28;20226;-87
2020/12/10 12:39:40;;;;;;;29.95;15.20;;;3.70;99.80;;;;;;4975301;28;20240;-87
2020/12/10 12:42:09;;;;;;;27.60;14.82;;;3.80;99.80;;;;;;4978083;28;20233;-87
2020/12/10 12:44:36;;;;;;;29.73;14.50;;;3.80;99.80;;;;;;4974699;28;20232;-87
2020/12/10 12:50:18;;;;;;;31.85;15.25;;;3.80;99.80;;;;;;4997890;28;20247;-86
2020/12/10 12:53:05;;;;;;;28.88;13.75;;;3.90;99.80;;;;;;4999130;28;20254;-87
2020/12/10 12:55:47;;;;;;;31.20;14.63;;;3.80;99.80;;;;;;4984227;28;20226;-86
2020/12/10 13:00:57;;;;;;;27.83;13.73;;;3.70;99.80;;;;;;4966562;28;20231;-86
2020/12/10 13:03:24;;;;;;;34.92;15.90;;;3.80;99.80;;;;;;4982617;28;20253;-89
2020/12/10 13:08:30;;;;;;;34.97;16.55;;;3.70;99.80;;;;;;5275132;23;20232;-87
2020/12/10 13:11:23;;;;;;;27.45;13.35;;;3.70;99.80;;;;;;4980294;28;20677;-86
2020/12/10 13:14:06;;;;;;;28.15;15.57;;;3.70;99.80;;;;;;4971072;28;20297;-86
2020/12/10 13:16:34;;;;;;;31.65;16.25;;;3.70;99.80;;;;;;4976494;28;20285;-86
2020/12/10 13:19:01;;;;;;;31.15;17.33;;;3.70;99.80;;;;;;4981537;28;20769;-86
2020/12/10 13:21:28;;;;;;;32.63;18.25;;;3.70;99.80;;;;;;4980188;28;20608;-87
2020/12/10 13:23:55;;;;;;;26.42;14.07;;;3.60;99.80;;;;;;4983476;28;20318;-86
2020/12/10 13:26:25;;;;;;;23.10;13.00;;;3.60;99.80;;;;;;4971916;28;20242;-86
2020/12/10 13:29:11;;;;;;;31.60;14.63;;;3.60;99.80;;;;;;4956661;28;20609;-86
2020/12/10 13:32:02;;;;;;;27.98;11.77;;;3.50;99.80;;;;;;4953300;28;20235;-85
2020/12/10 13:34:29;;;;;;;26.77;13.38;;;3.50;99.80;;;;;;4980193;28;20278;-86
2020/12/10 13:37:12;;;;;;;26.10;12.52;;;3.50;99.80;;;;;;4965860;28;20713;-86
2020/12/10 13:39:40;;;;;;;24.50;11.93;;;3.50;99.80;;;;;;4951634;28;20233;-86
2020/12/10 13:42:24;;;;;;;30.23;12.00;;;3.50;99.80;;;;;;4949540;28;20231;-87
2020/12/10 13:47:56;;;;;;;25.30;11.98;;;3.50;99.80;;;;;;4958931;28;20226;-86
2020/12/10 13:50:23;;;;;;;22.88;12.60;;;3.40;99.80;;;;;;4975453;28;20226;-87
2020/12/10 13:52:50;;;;;;;23.20;12.25;;;3.40;99.80;;;;;;4981177;28;20757;-85
2020/12/10 13:56:03;;;;;;;22.20;11.10;;;3.40;99.80;;;;;;4983882;28;20227;-86
2020/12/10 13:58:30;;;;;;;28.15;13.70;;;3.40;99.80;;;;;;4981863;28;20235;-85
2020/12/10 14:00:58;;;;;;;24.95;12.02;;;3.40;99.80;;;;;;4982194;28;20246;-85
2020/12/10 14:03:25;;;;;;;22.45;11.25;;;3.40;99.80;;;;;;4980597;28;20235;-86
2020/12/10 14:06:28;;;;;;;22.67;11.80;;;3.30;99.80;;;;;;4984253;28;20227;-86
2020/12/10 14:08:56;;;;;;;27.58;11.50;;;3.30;99.80;;;;;;4970000;28;20247;-86
2020/12/10 14:11:24;;;;;;;26.60;12.45;;;3.30;99.80;;;;;;4974865;28;20231;-85
2020/12/10 14:19:29;;;;;;;24.48;12.30;;;3.20;99.80;;;;;;4973689;28;20338;-85